Time,TemperatureF,DewpointF,PressureIn,WindDirection,WindDirectionDegrees,WindSpeedMPH,WindSpeedGustMPH,Humidity,HourlyPrecipIn,Conditions,Clouds,dailyrainin,SoftwareType,DateUTC
2013-09-18 00:01:00,48.7,38.3,29.79,SW,225,2.0,2.0,67,0.00,,,0.00,VWS V14.01,2013-09-18 04:01:00,
2013-09-18 00:03:00,48.6,38.1,29.79,SW,225,2.2,2.2,67,0.00,,,0.00,VWS V14.01,2013-09-18 04:03:00,
2013-09-18 00:08:00,48.4,37.9,29.79,SSW,202,1.3,1.3,67,0.00,,,0.00,VWS V14.01,2013-09-18 04:08:00,
2013-09-18 00:13:00,48.0,38.0,29.79,SSW,202,2.5,2.5,68,0.00,,,0.00,VWS V14.01,2013-09-18 04:13:00,
2013-09-18 00:18:00,48.0,38.3,29.79,SW,225,1.6,1.6,69,0.00,,,0.00,VWS V14.01,2013-09-18 04:18:00,
2013-09-18 00:23:00,48.0,38.3,29.79,SSW,202,2.0,2.0,69,0.00,,,0.00,VWS V14.01,2013-09-18 04:23:00,
2013-09-18 00:28:00,48.0,38.3,29.79,SSW,202,2.2,2.2,69,0.00,,,0.00,VWS V14.01,2013-09-18 04:28:00,
2013-09-18 00:34:00,47.8,38.5,29.79,SW,225,2.0,2.0,70,0.00,,,0.00,VWS V14.01,2013-09-18 04:34:00,
2013-09-18 00:39:00,47.8,38.9,29.79,SW,225,2.0,2.0,71,0.00,,,0.00,VWS V14.01,2013-09-18 04:39:00,
2013-09-18 00:44:00,47.7,39.1,29.79,WSW,248,1.6,1.6,72,0.00,,,0.00,VWS V14.01,2013-09-18 04:44:00,
2013-09-18 00:49:00,47.3,38.4,29.79,SSW,202,0.0,0.0,71,0.00,,,0.00,VWS V14.01,2013-09-18 04:49:00,
2013-09-18 00:54:00,47.5,38.6,29.79,ENE,68,0.0,0.0,71,0.00,,,0.00,VWS V14.01,2013-09-18 04:54:00,
2013-09-18 00:59:00,47.3,38.4,29.79,ENE,68,0.0,0.0,71,0.00,,,0.00,VWS V14.01,2013-09-18 04:59:00,
2013-09-18 01:04:00,47.3,38.4,29.79,ENE,68,0.0,0.0,71,0.00,,,0.00,VWS V14.01,2013-09-18 05:04:00,
2013-09-18 01:09:00,47.1,38.2,29.76,ENE,68,0.0,0.0,71,0.00,,,0.00,VWS V14.01,2013-09-18 05:09:00,
2013-09-18 01:14:00,47.1,38.2,29.76,NE,45,0.0,0.0,71,0.00,,,0.00,VWS V14.01,2013-09-18 05:14:00,
2013-09-18 01:19:00,46.9,38.0,29.76,ESE,112,2.0,2.0,71,0.00,,,0.00,VWS V14.01,2013-09-18 05:19:00,
2013-09-18 01:24:00,46.9,38.4,29.79,SE,135,2.0,2.0,72,0.00,,,0.00,VWS V14.01,2013-09-18 05:24:00,
2013-09-18 01:29:00,46.8,38.6,29.79,SSE,158,0.0,0.0,73,0.00,,,0.00,VWS V14.01,2013-09-18 05:29:00,
2013-09-18 01:31:00,46.8,38.6,29.79,SSE,158,0.0,0.0,73,0.00,,,0.00,VWS V14.01,2013-09-18 05:31:00,
2013-09-18 01:36:00,46.6,38.0,29.79,East,90,0.0,0.0,72,0.00,,,0.00,VWS V14.01,2013-09-18 05:36:00,
2013-09-18 01:41:00,46.4,37.9,29.79,South,180,2.0,2.0,72,0.00,,,0.00,VWS V14.01,2013-09-18 05:41:00,
2013-09-18 01:46:00,46.2,38.1,29.79,South,180,0.0,0.0,73,0.00,,,0.00,VWS V14.01,2013-09-18 05:46:00,
2013-09-18 01:51:00,46.0,37.9,29.82,WSW,248,0.0,0.0,73,0.00,,,0.00,VWS V14.01,2013-09-18 05:51:00,
2013-09-18 01:56:00,45.9,38.0,29.82,WSW,248,0.0,0.0,74,0.00,,,0.00,VWS V14.01,2013-09-18 05:56:00,
2013-09-18 02:01:00,45.9,38.0,29.82,WSW,248,0.0,0.0,74,0.00,,,0.00,VWS V14.01,2013-09-18 06:01:00,
2013-09-18 02:06:00,45.9,38.0,29.79,WSW,248,0.0,0.0,74,0.00,,,0.00,VWS V14.01,2013-09-18 06:06:00,
2013-09-18 02:11:00,45.9,38.4,29.79,WSW,248,0.0,0.0,75,0.00,,,0.00,VWS V14.01,2013-09-18 06:11:00,
2013-09-18 02:16:00,45.9,38.4,29.79,WSW,248,0.0,0.0,75,0.00,,,0.00,VWS V14.01,2013-09-18 06:16:00,
2013-09-18 02:22:00,45.5,38.0,29.79,WSW,248,0.0,0.0,75,0.00,,,0.00,VWS V14.01,2013-09-18 06:22:00,
2013-09-18 02:27:00,45.3,38.5,29.79,WSW,248,0.0,0.0,77,0.00,,,0.00,VWS V14.01,2013-09-18 06:27:00,
2013-09-18 02:32:00,45.3,38.2,29.79,SSW,202,1.6,1.6,76,0.00,,,0.00,VWS V14.01,2013-09-18 06:32:00,
2013-09-18 02:37:00,45.3,38.2,29.79,WSW,248,1.6,1.6,76,0.00,,,0.00,VWS V14.01,2013-09-18 06:37:00,
2013-09-18 02:42:00,44.6,37.5,29.79,SSW,202,2.0,2.0,76,0.00,,,0.00,VWS V14.01,2013-09-18 06:42:00,
2013-09-18 02:47:00,44.2,37.5,29.79,SW,225,2.0,2.0,77,0.00,,,0.00,VWS V14.01,2013-09-18 06:47:00,
2013-09-18 02:52:00,44.2,37.8,29.79,SW,225,1.6,1.6,78,0.00,,,0.00,VWS V14.01,2013-09-18 06:52:00,
2013-09-18 02:57:00,44.1,37.7,29.79,SSW,202,1.3,1.3,78,0.00,,,0.00,VWS V14.01,2013-09-18 06:57:00,
2013-09-18 03:02:00,44.2,37.8,29.79,South,180,0.0,0.0,78,0.00,,,0.00,VWS V14.01,2013-09-18 07:02:00,
2013-09-18 03:07:00,44.4,37.7,29.79,SSE,158,0.0,0.0,77,0.00,,,0.00,VWS V14.01,2013-09-18 07:07:00,
2013-09-18 03:12:00,44.4,37.7,29.79,SE,135,0.0,0.0,77,0.00,,,0.00,VWS V14.01,2013-09-18 07:12:00,
2013-09-18 03:17:00,44.4,37.7,29.79,East,90,0.0,0.0,77,0.00,,,0.00,VWS V14.01,2013-09-18 07:17:00,
2013-09-18 03:22:00,44.2,37.2,29.79,ENE,68,0.0,0.0,76,0.00,,,0.00,VWS V14.01,2013-09-18 07:22:00,
2013-09-18 03:27:00,44.2,37.2,29.79,NE,45,0.0,0.0,76,0.00,,,0.00,VWS V14.01,2013-09-18 07:27:00,
2013-09-18 03:32:00,44.2,37.2,29.79,NNE,22,0.0,0.0,76,0.00,,,0.00,VWS V14.01,2013-09-18 07:32:00,
2013-09-18 03:37:00,44.1,37.0,29.79,NNE,22,0.0,0.0,76,0.00,,,0.00,VWS V14.01,2013-09-18 07:37:00,
2013-09-18 03:42:00,44.2,37.2,29.79,NNE,22,0.0,0.0,76,0.00,,,0.00,VWS V14.01,2013-09-18 07:42:00,
2013-09-18 03:47:00,44.1,37.0,29.79,NNE,22,0.0,0.0,76,0.00,,,0.00,VWS V14.01,2013-09-18 07:47:00,
2013-09-18 03:52:00,44.1,37.0,29.79,NNE,22,0.0,0.0,76,0.00,,,0.00,VWS V14.01,2013-09-18 07:52:00,
2013-09-18 03:57:00,43.9,36.8,29.79,NE,45,0.0,0.0,76,0.00,,,0.00,VWS V14.01,2013-09-18 07:57:00,
2013-09-18 04:02:00,43.7,36.6,29.79,NE,45,0.0,0.0,76,0.00,,,0.00,VWS V14.01,2013-09-18 08:02:00,
2013-09-18 04:08:00,43.7,36.6,29.79,East,90,0.0,0.0,76,0.00,,,0.00,VWS V14.01,2013-09-18 08:08:00,
2013-09-18 04:13:00,43.5,36.5,29.79,East,90,0.0,0.0,76,0.00,,,0.00,VWS V14.01,2013-09-18 08:13:00,
2013-09-18 04:18:00,43.5,36.5,29.79,East,90,0.0,0.0,76,0.00,,,0.00,VWS V14.01,2013-09-18 08:18:00,
2013-09-18 04:23:00,43.3,36.3,29.79,East,90,0.0,0.0,76,0.00,,,0.00,VWS V14.01,2013-09-18 08:23:00,
2013-09-18 04:28:00,43.2,36.1,29.79,SE,135,0.0,0.0,76,0.00,,,0.00,VWS V14.01,2013-09-18 08:28:00,
2013-09-18 04:33:00,42.8,35.8,29.79,SSE,158,0.0,0.0,76,0.00,,,0.00,VWS V14.01,2013-09-18 08:33:00,
2013-09-18 04:38:00,43.0,36.0,29.79,SSE,158,0.0,0.0,76,0.00,,,0.00,VWS V14.01,2013-09-18 08:38:00,
2013-09-18 04:43:00,43.0,36.3,29.79,SSE,158,0.0,0.0,77,0.00,,,0.00,VWS V14.01,2013-09-18 08:43:00,
2013-09-18 04:48:00,43.0,36.3,29.79,WSW,248,0.0,0.0,77,0.00,,,0.00,VWS V14.01,2013-09-18 08:48:00,
2013-09-18 04:53:00,42.8,36.1,29.76,SSW,202,0.0,0.0,77,0.00,,,0.00,VWS V14.01,2013-09-18 08:53:00,
2013-09-18 04:58:00,42.4,35.8,29.76,SSW,202,1.3,1.3,77,0.00,,,0.00,VWS V14.01,2013-09-18 08:58:00,
2013-09-18 05:03:00,42.4,36.1,29.76,SSW,202,0.9,0.9,78,0.00,,,0.00,VWS V14.01,2013-09-18 09:03:00,
2013-09-18 05:08:00,42.4,36.4,29.79,SW,225,0.0,0.0,79,0.00,,,0.00,VWS V14.01,2013-09-18 09:08:00,
2013-09-18 05:13:00,42.4,36.1,29.79,SW,225,0.0,0.0,78,0.00,,,0.00,VWS V14.01,2013-09-18 09:13:00,
2013-09-18 05:18:00,42.4,36.1,29.79,NNW,338,0.0,0.0,78,0.00,,,0.00,VWS V14.01,2013-09-18 09:18:00,
2013-09-18 05:23:00,42.4,36.1,29.79,NNW,338,0.0,0.0,78,0.00,,,0.00,VWS V14.01,2013-09-18 09:23:00,
2013-09-18 05:28:00,42.4,36.1,29.79,WSW,248,0.0,0.0,78,0.00,,,0.00,VWS V14.01,2013-09-18 09:28:00,
2013-09-18 05:33:00,42.4,36.1,29.79,NNW,338,0.0,0.0,78,0.00,,,0.00,VWS V14.01,2013-09-18 09:33:00,
2013-09-18 05:38:00,42.6,36.2,29.79,NNW,338,0.0,0.0,78,0.00,,,0.00,VWS V14.01,2013-09-18 09:38:00,
2013-09-18 05:43:00,42.4,36.1,29.79,NNW,338,0.0,0.0,78,0.00,,,0.00,VWS V14.01,2013-09-18 09:43:00,
2013-09-18 05:48:00,42.3,35.9,29.79,NNW,338,0.0,0.0,78,0.00,,,0.00,VWS V14.01,2013-09-18 09:48:00,
2013-09-18 05:53:00,42.3,35.6,29.79,NNW,338,0.0,0.0,77,0.00,,,0.00,VWS V14.01,2013-09-18 09:53:00,
2013-09-18 05:59:00,41.9,35.2,29.79,WSW,248,0.0,0.0,77,0.00,,,0.00,VWS V14.01,2013-09-18 09:59:00,
2013-09-18 06:04:00,41.9,35.5,29.79,South,180,0.0,0.0,78,0.00,,,0.00,VWS V14.01,2013-09-18 10:04:00,
2013-09-18 06:09:00,42.1,36.0,29.79,South,180,0.0,0.0,79,0.00,,,0.00,VWS V14.01,2013-09-18 10:09:00,
2013-09-18 06:14:00,42.1,36.4,29.79,South,180,0.0,0.0,80,0.00,,,0.00,VWS V14.01,2013-09-18 10:14:00,
2013-09-18 06:19:00,42.3,36.5,29.79,South,180,0.0,0.0,80,0.00,,,0.00,VWS V14.01,2013-09-18 10:19:00,
2013-09-18 06:24:00,42.3,36.9,29.82,South,180,0.0,0.0,81,0.00,,,0.00,VWS V14.01,2013-09-18 10:24:00,
2013-09-18 06:29:00,42.3,36.9,29.82,South,180,0.0,0.0,81,0.00,,,0.00,VWS V14.01,2013-09-18 10:29:00,
2013-09-18 06:34:00,42.1,36.7,29.82,SSE,158,0.0,0.0,81,0.00,,,0.00,VWS V14.01,2013-09-18 10:34:00,
2013-09-18 06:39:00,42.1,36.7,29.82,SSW,202,0.0,0.0,81,0.00,,,0.00,VWS V14.01,2013-09-18 10:39:00,
2013-09-18 06:44:00,42.1,36.7,29.82,South,180,0.0,0.0,81,0.00,,,0.00,VWS V14.01,2013-09-18 10:44:00,
2013-09-18 06:49:00,41.9,36.2,29.82,South,180,0.0,0.0,80,0.00,,,0.00,VWS V14.01,2013-09-18 10:49:00,
2013-09-18 06:54:00,41.7,36.0,29.82,South,180,0.0,0.0,80,0.00,,,0.00,VWS V14.01,2013-09-18 10:54:00,
2013-09-18 06:59:00,41.5,36.2,29.82,WSW,248,0.0,0.0,81,0.00,,,0.00,VWS V14.01,2013-09-18 10:59:00,
2013-09-18 07:04:00,41.4,35.7,29.82,West,270,0.0,0.0,80,0.00,,,0.00,VWS V14.01,2013-09-18 11:04:00,
2013-09-18 07:09:00,41.2,35.8,29.82,West,270,0.0,0.0,81,0.00,,,0.00,VWS V14.01,2013-09-18 11:09:00,
2013-09-18 07:14:00,41.4,36.3,29.82,WNW,292,0.0,0.0,82,0.00,,,0.00,VWS V14.01,2013-09-18 11:14:00,
2013-09-18 07:19:00,41.5,36.8,29.82,West,270,0.0,0.0,83,0.00,,,0.00,VWS V14.01,2013-09-18 11:19:00,
2013-09-18 07:24:00,41.7,37.2,29.82,West,270,0.0,0.0,84,0.00,,,0.00,VWS V14.01,2013-09-18 11:24:00,
2013-09-18 07:29:00,41.9,37.4,29.82,WSW,248,0.0,0.0,84,0.00,,,0.00,VWS V14.01,2013-09-18 11:29:00,
2013-09-18 07:35:00,42.3,37.8,29.82,West,270,0.0,0.0,84,0.00,,,0.00,VWS V14.01,2013-09-18 11:35:00,
2013-09-18 07:40:00,42.4,38.0,29.82,NNE,22,0.0,0.0,84,0.00,,,0.00,VWS V14.01,2013-09-18 11:40:00,
2013-09-18 07:45:00,42.4,38.0,29.82,NNE,22,0.0,0.0,84,0.00,,,0.00,VWS V14.01,2013-09-18 11:45:00,
2013-09-18 07:50:00,42.8,38.3,29.82,NNE,22,0.0,0.0,84,0.00,,,0.00,VWS V14.01,2013-09-18 11:50:00,
2013-09-18 07:55:00,43.0,38.5,29.82,NNE,22,0.0,0.0,84,0.00,,,0.00,VWS V14.01,2013-09-18 11:55:00,
2013-09-18 08:00:00,43.3,38.8,29.82,East,90,0.0,0.0,84,0.00,,,0.00,VWS V14.01,2013-09-18 12:00:00,
2013-09-18 08:05:00,43.7,39.5,29.82,ENE,68,0.0,0.0,85,0.00,,,0.00,VWS V14.01,2013-09-18 12:05:00,
2013-09-18 08:10:00,43.9,39.7,29.82,ENE,68,0.0,0.0,85,0.00,,,0.00,VWS V14.01,2013-09-18 12:10:00,
2013-09-18 08:15:00,44.2,40.0,29.82,NE,45,0.0,0.0,85,0.00,,,0.00,VWS V14.01,2013-09-18 12:15:00,
2013-09-18 08:20:00,44.4,40.5,29.82,NE,45,0.0,0.0,86,0.00,,,0.00,VWS V14.01,2013-09-18 12:20:00,
2013-09-18 08:25:00,44.6,40.4,29.82,NNE,22,0.0,0.0,85,0.00,,,0.00,VWS V14.01,2013-09-18 12:25:00,
2013-09-18 08:30:00,44.6,40.7,29.82,NNW,338,1.1,1.1,86,0.00,,,0.00,VWS V14.01,2013-09-18 12:30:00,
2013-09-18 08:35:00,45.0,41.0,29.82,NW,315,0.0,0.0,86,0.00,,,0.00,VWS V14.01,2013-09-18 12:35:00,
2013-09-18 08:40:00,45.3,41.4,29.82,NNE,22,1.3,1.3,86,0.00,,,0.00,VWS V14.01,2013-09-18 12:40:00,
2013-09-18 08:45:00,45.5,41.6,29.82,NNE,22,0.0,0.0,86,0.00,,,0.00,VWS V14.01,2013-09-18 12:45:00,
2013-09-18 08:50:00,45.7,41.7,29.82,NNE,22,1.3,1.3,86,0.00,,,0.00,VWS V14.01,2013-09-18 12:50:00,
2013-09-18 08:55:00,46.0,42.1,29.82,NE,45,0.0,0.0,86,0.00,,,0.00,VWS V14.01,2013-09-18 12:55:00,
2013-09-18 09:00:00,46.4,42.5,29.82,NNE,22,2.0,2.0,86,0.00,,,0.00,VWS V14.01,2013-09-18 13:00:00,
2013-09-18 09:05:00,46.8,42.8,29.82,East,90,2.5,2.5,86,0.00,,,0.00,VWS V14.01,2013-09-18 13:05:00,
2013-09-18 09:10:00,47.3,43.3,29.82,East,90,2.5,2.5,86,0.00,,,0.00,VWS V14.01,2013-09-18 13:10:00,
2013-09-18 09:15:00,47.5,43.8,29.82,East,90,2.2,2.2,87,0.00,,,0.00,VWS V14.01,2013-09-18 13:15:00,
2013-09-18 09:20:00,47.8,44.2,29.82,NNE,22,1.6,1.6,87,0.00,,,0.00,VWS V14.01,2013-09-18 13:20:00,
2013-09-18 09:26:00,47.8,43.9,29.82,NNE,22,0.0,0.0,86,0.00,,,0.00,VWS V14.01,2013-09-18 13:26:00,
2013-09-18 09:31:00,48.2,44.2,29.82,North,0,2.5,2.5,86,0.00,,,0.00,VWS V14.01,2013-09-18 13:31:00,
2013-09-18 09:36:00,48.4,44.4,29.82,NNE,22,2.9,2.9,86,0.00,,,0.00,VWS V14.01,2013-09-18 13:36:00,
2013-09-18 09:41:00,48.6,44.6,29.82,NNE,22,2.5,2.5,86,0.00,,,0.00,VWS V14.01,2013-09-18 13:41:00,
2013-09-18 09:46:00,48.7,44.8,29.82,North,0,0.0,0.0,86,0.00,,,0.00,VWS V14.01,2013-09-18 13:46:00,
2013-09-18 09:51:00,49.1,45.1,29.82,NNE,22,2.5,2.5,86,0.00,,,0.00,VWS V14.01,2013-09-18 13:51:00,
2013-09-18 09:56:00,49.5,45.2,29.82,ESE,112,4.7,4.7,85,0.00,,,0.00,VWS V14.01,2013-09-18 13:56:00,
2013-09-18 10:01:00,50.0,45.7,29.82,NNE,22,0.9,0.9,85,0.00,,,0.00,VWS V14.01,2013-09-18 14:01:00,
2013-09-18 10:06:00,50.4,46.0,29.79,NNE,22,2.2,2.2,85,0.00,,,0.00,VWS V14.01,2013-09-18 14:06:00,
2013-09-18 10:11:00,50.7,46.1,29.79,NE,45,2.5,2.5,84,0.00,,,0.00,VWS V14.01,2013-09-18 14:11:00,
2013-09-18 10:16:00,51.1,46.4,29.79,West,270,0.0,0.0,84,0.00,,,0.00,VWS V14.01,2013-09-18 14:16:00,
2013-09-18 10:21:00,51.6,47.0,29.79,NNE,22,3.1,3.1,84,0.00,,,0.00,VWS V14.01,2013-09-18 14:21:00,
2013-09-18 10:26:00,52.0,47.0,29.79,NNE,22,3.6,3.6,83,0.00,,,0.00,VWS V14.01,2013-09-18 14:26:00,
2013-09-18 10:31:00,52.3,47.0,29.79,NNE,22,3.8,3.8,82,0.00,,,0.00,VWS V14.01,2013-09-18 14:31:00,
2013-09-18 10:36:00,52.7,47.4,29.79,NE,45,2.9,2.9,82,0.00,,,0.00,VWS V14.01,2013-09-18 14:36:00,
2013-09-18 10:41:00,53.1,47.4,29.79,ENE,68,2.5,2.5,81,0.00,,,0.00,VWS V14.01,2013-09-18 14:41:00,
2013-09-18 10:46:00,53.4,47.4,29.79,NNE,22,0.0,0.0,80,0.00,,,0.00,VWS V14.01,2013-09-18 14:46:00,
2013-09-18 10:52:00,53.8,47.4,29.79,NNE,22,3.1,3.1,79,0.00,,,0.00,VWS V14.01,2013-09-18 14:52:00,
2013-09-18 10:57:00,54.1,47.4,29.79,SSE,158,3.6,3.6,78,0.00,,,0.00,VWS V14.01,2013-09-18 14:57:00,
2013-09-18 11:02:00,54.5,47.1,29.79,SSW,202,3.6,3.6,76,0.00,,,0.00,VWS V14.01,2013-09-18 15:02:00,
2013-09-18 11:07:00,54.9,47.1,29.79,NNE,22,0.0,0.0,75,0.00,,,0.00,VWS V14.01,2013-09-18 15:07:00,
2013-09-18 11:12:00,55.6,47.4,29.79,NW,315,1.3,1.3,74,0.00,,,0.00,VWS V14.01,2013-09-18 15:12:00,
2013-09-18 11:17:00,56.3,47.8,29.79,West,270,3.4,3.4,73,0.00,,,0.00,VWS V14.01,2013-09-18 15:17:00,
2013-09-18 11:22:00,56.8,47.5,29.79,West,270,2.9,2.9,71,0.00,,,0.00,VWS V14.01,2013-09-18 15:22:00,
2013-09-18 11:27:00,57.2,46.8,29.79,SSW,202,1.1,1.1,68,0.00,,,0.00,VWS V14.01,2013-09-18 15:27:00,
2013-09-18 11:32:00,57.7,46.9,29.79,SW,225,2.9,2.9,67,0.00,,,0.00,VWS V14.01,2013-09-18 15:32:00,
2013-09-18 11:37:00,58.3,47.0,29.76,WSW,248,3.8,3.8,66,0.00,,,0.00,VWS V14.01,2013-09-18 15:37:00,
2013-09-18 11:42:00,58.5,47.2,29.76,SSW,202,2.9,2.9,66,0.00,,,0.00,VWS V14.01,2013-09-18 15:42:00,
2013-09-18 11:47:00,59.2,45.8,29.76,SSW,202,2.9,2.9,61,0.00,,,0.00,VWS V14.01,2013-09-18 15:47:00,
2013-09-18 11:52:00,59.7,45.4,29.76,WSW,248,4.9,4.9,59,0.00,,,0.00,VWS V14.01,2013-09-18 15:52:00,
2013-09-18 11:57:00,60.1,46.2,29.76,WNW,292,1.6,1.6,60,0.00,,,0.00,VWS V14.01,2013-09-18 15:57:00,
2013-09-18 12:01:00,60.3,45.9,29.76,SSW,202,2.5,2.5,59,0.00,,,0.00,VWS V14.01,2013-09-18 16:01:00,
2013-09-18 12:06:00,60.6,44.8,29.74,WNW,292,2.7,2.7,56,0.00,,,0.00,VWS V14.01,2013-09-18 16:06:00,
2013-09-18 12:11:00,61.0,45.2,29.74,SW,225,2.5,2.5,56,0.00,,,0.00,VWS V14.01,2013-09-18 16:11:00,
2013-09-18 12:16:00,61.2,43.4,29.74,West,270,4.0,4.0,52,0.00,,,0.00,VWS V14.01,2013-09-18 16:16:00,
2013-09-18 12:21:00,61.5,43.2,29.74,SSW,202,5.8,5.8,51,0.00,,,0.00,VWS V14.01,2013-09-18 16:21:00,
2013-09-18 12:26:00,61.9,45.5,29.74,SSW,202,2.7,2.7,55,0.00,,,0.00,VWS V14.01,2013-09-18 16:26:00,
2013-09-18 12:31:00,62.1,44.2,29.74,WSW,248,1.6,1.6,52,0.00,,,0.00,VWS V14.01,2013-09-18 16:31:00,
2013-09-18 12:37:00,62.2,45.4,29.74,SW,225,4.0,4.0,54,0.00,,,0.00,VWS V14.01,2013-09-18 16:37:00,
2013-09-18 12:42:00,62.6,45.2,29.74,SW,225,5.6,5.6,53,0.00,,,0.00,VWS V14.01,2013-09-18 16:42:00,
2013-09-18 12:47:00,63.0,44.6,29.74,SSE,158,3.8,3.8,51,0.00,,,0.00,VWS V14.01,2013-09-18 16:47:00,
2013-09-18 12:52:00,63.3,44.4,29.74,South,180,4.0,4.0,50,0.00,,,0.00,VWS V14.01,2013-09-18 16:52:00,
2013-09-18 12:57:00,63.5,44.5,29.74,South,180,6.3,6.3,50,0.00,,,0.00,VWS V14.01,2013-09-18 16:57:00,
2013-09-18 13:02:00,63.9,44.9,29.74,SW,225,8.7,8.7,50,0.00,,,0.00,VWS V14.01,2013-09-18 17:02:00,
2013-09-18 13:07:00,64.0,44.0,29.71,NW,315,1.6,1.6,48,0.00,,,0.00,VWS V14.01,2013-09-18 17:07:00,
2013-09-18 13:13:00,63.9,44.3,29.71,SSW,202,5.8,5.8,49,0.00,,,0.00,VWS V14.01,2013-09-18 17:13:00,
2013-09-18 13:18:00,64.4,44.3,29.71,SSW,202,3.1,3.1,48,0.00,,,0.00,VWS V14.01,2013-09-18 17:18:00,
2013-09-18 13:23:00,64.8,44.6,29.71,SSW,202,3.6,3.6,48,0.00,,,0.00,VWS V14.01,2013-09-18 17:23:00,
2013-09-18 13:28:00,64.9,44.8,29.71,South,180,2.0,2.0,48,0.00,,,0.00,VWS V14.01,2013-09-18 17:28:00,
2013-09-18 13:33:00,65.1,45.0,29.71,West,270,2.5,2.5,48,0.00,,,0.00,VWS V14.01,2013-09-18 17:33:00,
2013-09-18 13:38:00,65.5,43.0,29.71,West,270,6.5,6.5,44,0.00,,,0.00,VWS V14.01,2013-09-18 17:38:00,
2013-09-18 13:43:00,65.8,43.3,29.71,SSW,202,4.0,4.0,44,0.00,,,0.00,VWS V14.01,2013-09-18 17:43:00,
2013-09-18 13:48:00,66.0,44.7,29.71,West,270,4.3,4.3,46,0.00,,,0.00,VWS V14.01,2013-09-18 17:48:00,
2013-09-18 13:53:00,66.2,44.2,29.68,NNE,22,0.0,0.0,45,0.00,,,0.00,VWS V14.01,2013-09-18 17:53:00,
2013-09-18 13:58:00,66.4,44.4,29.68,SE,135,2.5,2.5,45,0.00,,,0.00,VWS V14.01,2013-09-18 17:58:00,
2013-09-18 14:03:00,66.7,44.8,29.68,SSW,202,6.0,6.0,45,0.00,,,0.00,VWS V14.01,2013-09-18 18:03:00,
2013-09-18 14:08:00,67.1,45.1,29.68,SSW,202,7.4,7.4,45,0.00,,,0.00,VWS V14.01,2013-09-18 18:08:00,
2013-09-18 14:13:00,67.1,44.5,29.68,South,180,6.7,6.7,44,0.00,,,0.00,VWS V14.01,2013-09-18 18:13:00,
2013-09-18 14:18:00,67.1,44.5,29.68,SSW,202,2.0,2.0,44,0.00,,,0.00,VWS V14.01,2013-09-18 18:18:00,
2013-09-18 14:23:00,67.5,44.8,29.68,WSW,248,0.9,0.9,44,0.00,,,0.00,VWS V14.01,2013-09-18 18:23:00,
2013-09-18 14:29:00,67.8,45.1,29.68,SSE,158,2.5,2.5,44,0.00,,,0.00,VWS V14.01,2013-09-18 18:29:00,
2013-09-18 14:34:00,67.6,45.0,29.68,SSE,158,7.4,7.4,44,0.00,,,0.00,VWS V14.01,2013-09-18 18:34:00,
2013-09-18 14:39:00,67.8,45.1,29.68,SE,135,5.6,5.6,44,0.00,,,0.00,VWS V14.01,2013-09-18 18:39:00,
2013-09-18 14:44:00,68.0,44.7,29.68,South,180,4.7,4.7,43,0.00,,,0.00,VWS V14.01,2013-09-18 18:44:00,
2013-09-18 14:49:00,68.2,44.9,29.68,SSW,202,3.4,3.4,43,0.00,,,0.00,VWS V14.01,2013-09-18 18:49:00,
2013-09-18 14:54:00,68.5,45.2,29.68,ENE,68,3.1,3.1,43,0.00,,,0.00,VWS V14.01,2013-09-18 18:54:00,
2013-09-18 14:59:00,68.7,44.7,29.68,WNW,292,5.6,5.6,42,0.00,,,0.00,VWS V14.01,2013-09-18 18:59:00,
2013-09-18 15:04:00,69.1,43.8,29.68,WSW,248,4.0,4.0,40,0.00,,,0.00,VWS V14.01,2013-09-18 19:04:00,
2013-09-18 15:09:00,68.9,44.9,29.68,SE,135,5.6,5.6,42,0.00,,,0.00,VWS V14.01,2013-09-18 19:09:00,
2013-09-18 15:14:00,68.5,44.6,29.68,South,180,3.6,3.6,42,0.00,,,0.00,VWS V14.01,2013-09-18 19:14:00,
2013-09-18 15:19:00,68.9,44.9,29.68,SSW,202,2.0,2.0,42,0.00,,,0.00,VWS V14.01,2013-09-18 19:19:00,
2013-09-18 15:24:00,69.1,45.0,29.68,South,180,5.6,5.6,42,0.00,,,0.00,VWS V14.01,2013-09-18 19:24:00,
2013-09-18 15:29:00,69.3,44.6,29.68,West,270,1.6,1.6,41,0.00,,,0.00,VWS V14.01,2013-09-18 19:29:00,
2013-09-18 15:34:00,69.3,44.6,29.68,WSW,248,3.1,3.1,41,0.00,,,0.00,VWS V14.01,2013-09-18 19:34:00,
2013-09-18 15:40:00,69.4,45.4,29.65,SSE,158,3.6,3.6,42,0.00,,,0.00,VWS V14.01,2013-09-18 19:40:00,
2013-09-18 15:45:00,69.8,43.8,29.65,WSW,248,2.7,2.7,39,0.00,,,0.00,VWS V14.01,2013-09-18 19:45:00,
2013-09-18 15:50:00,69.8,44.4,29.65,SSW,202,6.3,6.3,40,0.00,,,0.00,VWS V14.01,2013-09-18 19:50:00,
2013-09-18 15:55:00,70.3,44.2,29.65,WNW,292,4.3,4.3,39,0.00,,,0.00,VWS V14.01,2013-09-18 19:55:00,
2013-09-18 16:00:00,70.3,44.2,29.65,WSW,248,2.7,2.7,39,0.00,,,0.00,VWS V14.01,2013-09-18 20:00:00,
2013-09-18 16:05:00,70.3,44.2,29.65,WSW,248,3.4,3.4,39,0.00,,,0.00,VWS V14.01,2013-09-18 20:05:00,
2013-09-18 16:10:00,70.3,44.2,29.65,SE,135,3.8,3.8,39,0.00,,,0.00,VWS V14.01,2013-09-18 20:10:00,
2013-09-18 16:15:00,70.2,43.4,29.65,East,90,5.6,5.6,38,0.00,,,0.00,VWS V14.01,2013-09-18 20:15:00,
2013-09-18 16:20:00,70.0,43.2,29.65,South,180,6.0,6.0,38,0.00,,,0.00,VWS V14.01,2013-09-18 20:20:00,
2013-09-18 16:25:00,70.0,43.9,29.62,SSW,202,1.3,1.3,39,0.00,,,0.00,VWS V14.01,2013-09-18 20:25:00,
2013-09-18 16:30:00,70.2,42.7,29.62,SSW,202,4.9,4.9,37,0.00,,,0.00,VWS V14.01,2013-09-18 20:30:00,
2013-09-18 16:35:00,70.3,42.9,29.65,South,180,4.9,4.9,37,0.00,,,0.00,VWS V14.01,2013-09-18 20:35:00,
2013-09-18 16:40:00,70.2,43.4,29.65,NE,45,1.3,1.3,38,0.00,,,0.00,VWS V14.01,2013-09-18 20:40:00,
2013-09-18 16:45:00,69.6,43.6,29.65,SSE,158,4.0,4.0,39,0.00,,,0.00,VWS V14.01,2013-09-18 20:45:00,
2013-09-18 16:51:00,69.4,43.4,29.62,SSE,158,2.7,2.7,39,0.00,,,0.00,VWS V14.01,2013-09-18 20:51:00,
2013-09-18 16:56:00,69.1,43.8,29.62,South,180,4.7,4.7,40,0.00,,,0.00,VWS V14.01,2013-09-18 20:56:00,
2013-09-18 17:01:00,68.9,43.6,29.62,SSW,202,5.4,5.4,40,0.00,,,0.00,VWS V14.01,2013-09-18 21:01:00,
2013-09-18 17:06:00,68.9,43.0,29.62,SW,225,5.6,5.6,39,0.00,,,0.00,VWS V14.01,2013-09-18 21:06:00,
2013-09-18 17:11:00,68.9,43.0,29.62,SE,135,4.3,4.3,39,0.00,,,0.00,VWS V14.01,2013-09-18 21:11:00,
2013-09-18 17:16:00,68.9,42.3,29.62,SSW,202,3.8,3.8,38,0.00,,,0.00,VWS V14.01,2013-09-18 21:16:00,
2013-09-18 17:21:00,68.7,43.5,29.62,WSW,248,3.8,3.8,40,0.00,,,0.00,VWS V14.01,2013-09-18 21:21:00,
2013-09-18 17:26:00,68.9,43.0,29.62,SSW,202,3.1,3.1,39,0.00,,,0.00,VWS V14.01,2013-09-18 21:26:00,
2013-09-18 17:31:00,68.9,43.0,29.62,South,180,3.1,3.1,39,0.00,,,0.00,VWS V14.01,2013-09-18 21:31:00,
2013-09-18 17:36:00,68.9,43.0,29.62,SSW,202,4.0,4.0,39,0.00,,,0.00,VWS V14.01,2013-09-18 21:36:00,
2013-09-18 17:41:00,68.9,43.6,29.62,South,180,4.9,4.9,40,0.00,,,0.00,VWS V14.01,2013-09-18 21:41:00,
2013-09-18 17:46:00,69.1,42.4,29.62,SSW,202,4.3,4.3,38,0.00,,,0.00,VWS V14.01,2013-09-18 21:46:00,
2013-09-18 17:51:00,69.3,42.6,29.62,WSW,248,3.8,3.8,38,0.00,,,0.00,VWS V14.01,2013-09-18 21:51:00,
2013-09-18 17:56:00,69.6,42.9,29.62,ESE,112,3.4,3.4,38,0.00,,,0.00,VWS V14.01,2013-09-18 21:56:00,
2013-09-18 18:01:00,69.3,42.6,29.62,SSW,202,2.7,2.7,38,0.00,,,0.00,VWS V14.01,2013-09-18 22:01:00,
2013-09-18 18:06:00,68.9,41.6,29.62,SSW,202,10.3,10.3,37,0.00,,,0.00,VWS V14.01,2013-09-18 22:06:00,
2013-09-18 18:11:00,68.5,41.3,29.62,SSW,202,6.0,6.0,37,0.00,,,0.00,VWS V14.01,2013-09-18 22:11:00,
2013-09-18 18:17:00,68.2,40.9,29.62,SSE,158,3.4,3.4,37,0.00,,,0.00,VWS V14.01,2013-09-18 22:17:00,
2013-09-18 18:22:00,68.0,41.5,29.62,South,180,2.5,2.5,38,0.00,,,0.00,VWS V14.01,2013-09-18 22:22:00,
2013-09-18 18:27:00,67.8,41.3,29.62,South,180,3.1,3.1,38,0.00,,,0.00,VWS V14.01,2013-09-18 22:27:00,
2013-09-18 18:32:00,67.6,41.2,29.62,SSW,202,3.6,3.6,38,0.00,,,0.00,VWS V14.01,2013-09-18 22:32:00,
2013-09-18 18:37:00,67.5,41.0,29.62,SSE,158,2.5,2.5,38,0.00,,,0.00,VWS V14.01,2013-09-18 22:37:00,
2013-09-18 18:42:00,67.1,41.3,29.62,South,180,2.7,2.7,39,0.00,,,0.00,VWS V14.01,2013-09-18 22:42:00,
2013-09-18 18:47:00,66.7,41.7,29.62,South,180,2.0,2.0,40,0.00,,,0.00,VWS V14.01,2013-09-18 22:47:00,
2013-09-18 18:52:00,66.2,41.8,29.59,South,180,0.9,0.9,41,0.00,,,0.00,VWS V14.01,2013-09-18 22:52:00,
2013-09-18 18:57:00,65.8,41.5,29.59,SSW,202,0.0,0.0,41,0.00,,,0.00,VWS V14.01,2013-09-18 22:57:00,
2013-09-18 19:02:00,65.5,41.8,29.59,SSW,202,1.6,1.6,42,0.00,,,0.00,VWS V14.01,2013-09-18 23:02:00,
2013-09-18 19:07:00,64.9,41.9,29.59,South,180,0.0,0.0,43,0.00,,,0.00,VWS V14.01,2013-09-18 23:07:00,
2013-09-18 19:12:00,64.4,41.4,29.59,SSW,202,2.0,2.0,43,0.00,,,0.00,VWS V14.01,2013-09-18 23:12:00,
2013-09-18 19:17:00,64.0,42.3,29.59,SSW,202,2.7,2.7,45,0.00,,,0.00,VWS V14.01,2013-09-18 23:17:00,
2013-09-18 19:22:00,63.5,41.2,29.62,South,180,1.3,1.3,44,0.00,,,0.00,VWS V14.01,2013-09-18 23:22:00,
2013-09-18 19:27:00,63.1,41.5,29.62,South,180,2.5,2.5,45,0.00,,,0.00,VWS V14.01,2013-09-18 23:27:00,
2013-09-18 19:33:00,62.8,41.2,29.62,SSE,158,1.3,1.3,45,0.00,,,0.00,VWS V14.01,2013-09-18 23:33:00,
2013-09-18 19:38:00,62.4,41.4,29.62,SSW,202,2.2,2.2,46,0.00,,,0.00,VWS V14.01,2013-09-18 23:38:00,
2013-09-18 19:43:00,62.1,41.1,29.62,SSW,202,0.0,0.0,46,0.00,,,0.00,VWS V14.01,2013-09-18 23:43:00,
2013-09-18 19:48:00,61.7,40.7,29.62,South,180,2.0,2.0,46,0.00,,,0.00,VWS V14.01,2013-09-18 23:48:00,
2013-09-18 19:53:00,61.3,41.0,29.62,South,180,1.6,1.6,47,0.00,,,0.00,VWS V14.01,2013-09-18 23:53:00,
2013-09-18 19:58:00,61.2,41.3,29.62,South,180,2.0,2.0,48,0.00,,,0.00,VWS V14.01,2013-09-18 23:58:00,
2013-09-18 20:03:00,61.0,41.2,29.62,SSE,158,2.0,2.0,48,0.00,,,0.00,VWS V14.01,2013-09-19 00:03:00,
2013-09-18 20:08:00,60.6,41.4,29.62,SSW,202,1.1,1.1,49,0.00,,,0.00,VWS V14.01,2013-09-19 00:08:00,
2013-09-18 20:13:00,60.4,41.2,29.62,SSE,158,1.6,1.6,49,0.00,,,0.00,VWS V14.01,2013-09-19 00:13:00,
2013-09-18 20:18:00,60.1,41.4,29.62,South,180,0.9,0.9,50,0.00,,,0.00,VWS V14.01,2013-09-19 00:18:00,
2013-09-18 20:23:00,59.9,41.2,29.62,SW,225,1.3,1.3,50,0.00,,,0.00,VWS V14.01,2013-09-19 00:23:00,
2013-09-18 20:28:00,59.7,41.1,29.62,SE,135,0.0,0.0,50,0.00,,,0.00,VWS V14.01,2013-09-19 00:28:00,
2013-09-18 20:33:00,59.7,41.6,29.62,SSW,202,0.0,0.0,51,0.00,,,0.00,VWS V14.01,2013-09-19 00:33:00,
2013-09-18 20:39:00,59.5,41.4,29.65,SE,135,0.0,0.0,51,0.00,,,0.00,VWS V14.01,2013-09-19 00:39:00,
2013-09-18 20:44:00,59.4,41.8,29.65,East,90,0.0,0.0,52,0.00,,,0.00,VWS V14.01,2013-09-19 00:44:00,
2013-09-18 20:49:00,59.2,41.6,29.65,NE,45,0.0,0.0,52,0.00,,,0.00,VWS V14.01,2013-09-19 00:49:00,
2013-09-18 20:54:00,59.0,41.4,29.65,North,0,1.6,1.6,52,0.00,,,0.00,VWS V14.01,2013-09-19 00:54:00,
2013-09-18 20:59:00,59.0,41.4,29.65,North,0,0.0,0.0,52,0.00,,,0.00,VWS V14.01,2013-09-19 00:59:00,
2013-09-18 21:04:00,58.8,41.7,29.65,North,0,0.0,0.0,53,0.00,,,0.00,VWS V14.01,2013-09-19 01:04:00,
2013-09-18 21:09:00,58.6,41.6,29.65,North,0,0.0,0.0,53,0.00,,,0.00,VWS V14.01,2013-09-19 01:09:00,
2013-09-18 21:14:00,58.6,41.6,29.65,NW,315,0.0,0.0,53,0.00,,,0.00,VWS V14.01,2013-09-19 01:14:00,
2013-09-18 21:19:00,58.6,41.1,29.65,NNW,338,0.0,0.0,52,0.00,,,0.00,VWS V14.01,2013-09-19 01:19:00,
2013-09-18 21:24:00,58.5,41.4,29.65,WNW,292,0.0,0.0,53,0.00,,,0.00,VWS V14.01,2013-09-19 01:24:00,
2013-09-18 21:29:00,58.5,41.9,29.65,WNW,292,0.0,0.0,54,0.00,,,0.00,VWS V14.01,2013-09-19 01:29:00,
2013-09-18 21:34:00,58.3,41.7,29.65,NNW,338,0.0,0.0,54,0.00,,,0.00,VWS V14.01,2013-09-19 01:34:00,
2013-09-18 21:39:00,58.1,42.0,29.65,ENE,68,0.0,0.0,55,0.00,,,0.00,VWS V14.01,2013-09-19 01:39:00,
2013-09-18 21:44:00,58.1,42.0,29.65,ENE,68,0.0,0.0,55,0.00,,,0.00,VWS V14.01,2013-09-19 01:44:00,
2013-09-18 21:49:00,57.9,41.9,29.65,NNE,22,0.0,0.0,55,0.00,,,0.00,VWS V14.01,2013-09-19 01:49:00,
2013-09-18 21:54:00,57.7,41.7,29.65,South,180,0.0,0.0,55,0.00,,,0.00,VWS V14.01,2013-09-19 01:54:00,
2013-09-18 21:59:00,57.6,42.0,29.65,SSE,158,0.0,0.0,56,0.00,,,0.00,VWS V14.01,2013-09-19 01:59:00,
2013-09-18 22:04:00,57.2,41.7,29.65,WSW,248,2.2,2.2,56,0.00,,,0.00,VWS V14.01,2013-09-19 02:04:00,
2013-09-18 22:09:00,57.0,42.0,29.65,WSW,248,0.0,0.0,57,0.00,,,0.00,VWS V14.01,2013-09-19 02:09:00,
2013-09-18 22:15:00,57.0,42.0,29.65,WSW,248,0.0,0.0,57,0.00,,,0.00,VWS V14.01,2013-09-19 02:15:00,
2013-09-18 22:20:00,56.8,42.2,29.65,SW,225,1.1,1.1,58,0.00,,,0.00,VWS V14.01,2013-09-19 02:20:00,
2013-09-18 22:25:00,56.8,42.2,29.65,South,180,2.2,2.2,58,0.00,,,0.00,VWS V14.01,2013-09-19 02:25:00,
2013-09-18 22:30:00,56.7,42.1,29.65,SSW,202,0.0,0.0,58,0.00,,,0.00,VWS V14.01,2013-09-19 02:30:00,
2013-09-18 22:35:00,56.7,42.1,29.68,South,180,1.3,1.3,58,0.00,,,0.00,VWS V14.01,2013-09-19 02:35:00,
2013-09-18 22:40:00,56.5,42.3,29.68,SSW,202,1.1,1.1,59,0.00,,,0.00,VWS V14.01,2013-09-19 02:40:00,
2013-09-18 22:45:00,56.3,42.2,29.68,South,180,1.6,1.6,59,0.00,,,0.00,VWS V14.01,2013-09-19 02:45:00,
2013-09-18 22:50:00,56.1,42.4,29.65,South,180,0.0,0.0,60,0.00,,,0.00,VWS V14.01,2013-09-19 02:50:00,
2013-09-18 22:55:00,55.9,42.3,29.65,SE,135,0.0,0.0,60,0.00,,,0.00,VWS V14.01,2013-09-19 02:55:00,
2013-09-18 23:01:00,55.8,42.5,29.65,SE,135,0.0,0.0,61,0.00,,,0.00,VWS V14.01,2013-09-19 03:01:00,
2013-09-18 23:06:00,55.2,42.4,29.68,SE,135,0.0,0.0,62,0.00,,,0.00,VWS V14.01,2013-09-19 03:06:00,
2013-09-18 23:11:00,54.7,41.9,29.68,SW,225,1.6,1.6,62,0.00,,,0.00,VWS V14.01,2013-09-19 03:11:00,
2013-09-18 23:16:00,54.5,42.6,29.68,SSW,202,1.1,1.1,64,0.00,,,0.00,VWS V14.01,2013-09-19 03:16:00,
2013-09-18 23:21:00,54.5,43.0,29.68,WSW,248,0.0,0.0,65,0.00,,,0.00,VWS V14.01,2013-09-19 03:21:00,
2013-09-18 23:26:00,54.5,42.6,29.68,WSW,248,0.0,0.0,64,0.00,,,0.00,VWS V14.01,2013-09-19 03:26:00,
2013-09-18 23:31:00,54.7,42.8,29.68,SW,225,0.0,0.0,64,0.00,,,0.00,VWS V14.01,2013-09-19 03:31:00,
2013-09-18 23:36:00,54.7,42.8,29.68,South,180,2.7,2.7,64,0.00,,,0.00,VWS V14.01,2013-09-19 03:36:00,
2013-09-18 23:41:00,54.9,43.3,29.68,South,180,2.7,2.7,65,0.00,,,0.00,VWS V14.01,2013-09-19 03:41:00,
2013-09-18 23:46:00,54.9,43.3,29.68,South,180,2.2,2.2,65,0.00,,,0.00,VWS V14.01,2013-09-19 03:46:00,
2013-09-18 23:51:00,54.7,43.2,29.68,SSE,158,0.0,0.0,65,0.00,,,0.00,VWS V14.01,2013-09-19 03:51:00,
2013-09-18 23:56:00,54.3,42.8,29.68,WSW,248,0.0,0.0,65,0.00,,,0.00,VWS V14.01,2013-09-19 03:56:00,